createdAt,value
2023-12-11T00:00:08.739Z,0.16
2023-12-11T00:00:41.096Z,0.21
2023-12-11T00:01:13.616Z,0.21
2023-12-11T00:01:46.399Z,0.19
2023-12-11T00:02:18.924Z,0.21
2023-12-11T00:02:51.077Z,0.23
2023-12-11T00:03:23.233Z,0.25
2023-12-11T00:03:57.131Z,0.24
2023-12-11T00:04:29.207Z,0.24
2023-12-11T00:05:01.867Z,0.26
2023-12-11T00:05:33.947Z,0.22
2023-12-11T00:06:06.739Z,0.26
2023-12-11T00:06:38.801Z,0.25
2023-12-11T00:07:10.980Z,0.23
2023-12-11T00:07:43.204Z,0.23
2023-12-11T00:08:15.276Z,0.17
2023-12-11T00:08:47.463Z,0.19
2023-12-11T00:09:19.476Z,0.18
2023-12-11T00:09:51.588Z,0.18
2023-12-11T00:10:23.620Z,0.19
2023-12-11T00:10:55.608Z,0.17
2023-12-11T00:11:27.665Z,0.11
2023-12-11T00:11:59.709Z,0.15
2023-12-11T00:12:31.788Z,0.16
2023-12-11T00:13:04.023Z,0.11
2023-12-11T00:13:36.063Z,0.18
2023-12-11T00:14:08.206Z,0.21
2023-12-11T00:14:40.346Z,0.23
2023-12-11T00:15:12.636Z,0.22
2023-12-11T00:15:44.717Z,0.20
2023-12-11T00:16:17.595Z,0.18
2023-12-11T00:16:49.660Z,0.13
2023-12-11T00:17:24.264Z,0.17
2023-12-11T00:17:56.505Z,0.20
2023-12-11T00:18:28.824Z,0.24
2023-12-11T00:19:02.390Z,0.27
2023-12-11T00:19:34.739Z,0.27
2023-12-11T00:20:08.065Z,0.28
2023-12-11T00:20:40.282Z,0.27
2023-12-11T00:21:12.672Z,0.27
2023-12-11T00:21:44.720Z,0.28
2023-12-11T00:22:16.750Z,0.27
2023-12-11T00:22:49.017Z,0.26
2023-12-11T00:23:21.210Z,0.26
2023-12-11T00:23:54.080Z,0.21
2023-12-11T00:24:26.138Z,0.22
2023-12-11T00:24:58.250Z,0.23
2023-12-11T00:25:30.567Z,0.22
2023-12-11T00:26:02.673Z,0.21
2023-12-11T00:26:34.719Z,0.24
2023-12-11T00:27:06.721Z,0.28
2023-12-11T00:27:38.726Z,0.31
2023-12-11T00:28:10.880Z,0.22
2023-12-11T00:28:42.935Z,0.13
2023-12-11T00:29:15.254Z,0.14
2023-12-11T00:29:47.361Z,0.20
2023-12-11T00:30:19.401Z,0.24
2023-12-11T00:30:52.261Z,0.23
2023-12-11T00:31:24.470Z,0.23
2023-12-11T00:31:56.488Z,0.22
2023-12-11T00:32:28.567Z,0.27
2023-12-11T00:33:00.603Z,0.26
2023-12-11T00:33:32.750Z,0.22
2023-12-11T00:34:06.351Z,0.24
2023-12-11T00:34:38.605Z,0.26
2023-12-11T00:35:10.725Z,0.20
2023-12-11T00:35:42.877Z,0.17
2023-12-11T00:36:14.957Z,0.18
2023-12-11T00:36:47.026Z,0.19
2023-12-11T00:37:19.056Z,0.22
2023-12-11T00:37:51.124Z,0.23
2023-12-11T00:38:23.192Z,0.25
2023-12-11T00:38:55.260Z,0.17
2023-12-11T00:39:28.004Z,0.16
2023-12-11T00:40:00.083Z,0.18
2023-12-11T00:40:32.407Z,0.21
2023-12-11T00:41:04.846Z,0.23
2023-12-11T00:41:36.899Z,0.25
2023-12-11T00:42:09.127Z,0.25
2023-12-11T00:42:41.392Z,0.26
2023-12-11T00:43:13.669Z,0.22
2023-12-11T00:43:46.815Z,0.24
2023-12-11T00:44:19.247Z,0.25
2023-12-11T00:44:51.359Z,0.24
2023-12-11T00:45:23.385Z,0.25
2023-12-11T00:45:55.658Z,0.27
2023-12-11T00:46:27.693Z,0.18
2023-12-11T00:46:59.756Z,0.22
2023-12-11T00:47:32.270Z,0.23
2023-12-11T00:48:05.123Z,0.21
2023-12-11T00:48:37.265Z,0.21
2023-12-11T00:49:11.048Z,0.18
2023-12-11T00:49:43.165Z,0.18
2023-12-11T00:50:15.287Z,0.17
2023-12-11T00:50:47.484Z,0.21
2023-12-11T00:51:20.754Z,0.16
2023-12-11T00:51:52.773Z,0.13
2023-12-11T00:52:24.904Z,0.11
2023-12-11T00:52:56.874Z,0.08
2023-12-11T00:53:28.894Z,0.08
2023-12-11T00:54:00.928Z,0.03
2023-12-11T00:54:33.074Z,0.05
2023-12-11T00:55:06.077Z,0.03
2023-12-11T00:55:38.175Z,0.08
2023-12-11T00:56:10.494Z,0.01
2023-12-11T00:56:42.614Z,0.02
2023-12-11T00:57:14.842Z,0.02
2023-12-11T00:57:49.989Z,0.07
2023-12-11T00:58:22.161Z,0.08
2023-12-11T00:58:54.207Z,0.03
2023-12-11T00:59:26.412Z,0.02
2023-12-11T00:59:58.619Z,-0.01
2023-12-11T01:00:30.764Z,0.02
2023-12-11T01:01:02.913Z,0.07
2023-12-11T01:01:35.025Z,0.09
2023-12-11T01:02:07.148Z,0.08
2023-12-11T01:02:39.143Z,0.08
2023-12-11T01:03:11.245Z,0.05
2023-12-11T01:03:43.514Z,0.07
2023-12-11T01:04:17.248Z,0.09
2023-12-11T01:04:49.501Z,0.10
2023-12-11T01:05:21.577Z,0.03
2023-12-11T01:05:53.715Z,0.03
2023-12-11T01:06:25.780Z,0.03
2023-12-11T01:06:57.902Z,-0.03
2023-12-11T01:07:30.263Z,-0.03
2023-12-11T01:08:02.524Z,-0.03
2023-12-11T01:08:34.677Z,0.00
2023-12-11T01:09:06.857Z,0.03
2023-12-11T01:09:38.968Z,0.04
2023-12-11T01:10:11.160Z,0.07
2023-12-11T01:10:43.386Z,0.08
2023-12-11T01:11:15.447Z,0.03
2023-12-11T01:11:47.452Z,0.06
2023-12-11T01:12:19.640Z,0.06
2023-12-11T01:12:51.797Z,0.07
2023-12-11T01:13:23.903Z,0.08
2023-12-11T01:13:55.976Z,0.09
2023-12-11T01:14:28.061Z,0.03
2023-12-11T01:15:00.113Z,0.02
2023-12-11T01:15:32.258Z,0.02
2023-12-11T01:16:05.138Z,-0.02
2023-12-11T01:16:37.204Z,-0.01
2023-12-11T01:17:36.695Z,-0.02
2023-12-11T01:18:01.393Z,0.06
2023-12-11T01:18:33.655Z,0.04
2023-12-11T01:19:06.217Z,-0.02
2023-12-11T01:19:40.240Z,-0.01
2023-12-11T01:20:12.842Z,0.03
2023-12-11T01:20:44.932Z,0.00
2023-12-11T01:21:17.139Z,0.00
2023-12-11T01:21:49.198Z,-0.02
2023-12-11T01:22:21.204Z,-0.04
2023-12-11T01:22:53.252Z,-0.03
2023-12-11T01:23:25.296Z,0.03
2023-12-11T01:23:58.261Z,0.04
2023-12-11T01:24:30.469Z,0.07
2023-12-11T01:25:02.572Z,0.02
2023-12-11T01:25:35.210Z,-0.03
2023-12-11T01:26:07.490Z,-0.04
2023-12-11T01:26:39.850Z,-0.03
2023-12-11T01:27:11.942Z,-0.01
2023-12-11T01:27:44.031Z,-0.01
2023-12-11T01:28:16.274Z,0.00
2023-12-11T01:28:48.332Z,-0.01
2023-12-11T01:29:20.378Z,-0.05
2023-12-11T01:29:52.452Z,-0.09
2023-12-11T01:30:24.705Z,-0.06
2023-12-11T01:30:56.828Z,-0.03
2023-12-11T01:31:28.874Z,-0.02
2023-12-11T01:32:01.024Z,-0.01
2023-12-11T01:32:33.105Z,0.00
2023-12-11T01:33:05.379Z,0.05
2023-12-11T01:33:37.527Z,0.09
2023-12-11T01:34:09.746Z,0.12
2023-12-11T01:34:43.486Z,0.04
2023-12-11T01:35:15.617Z,0.01
2023-12-11T01:35:47.644Z,0.07
2023-12-11T01:36:19.634Z,0.04
2023-12-11T01:36:51.702Z,0.05
2023-12-11T01:37:23.797Z,0.06
2023-12-11T01:37:55.866Z,0.07
2023-12-11T01:38:27.986Z,0.09
2023-12-11T01:39:00.023Z,0.11
2023-12-11T01:39:32.030Z,0.09
2023-12-11T01:40:05.018Z,0.10
2023-12-11T01:40:37.105Z,0.13
2023-12-11T01:41:09.094Z,0.12
2023-12-11T01:41:43.992Z,0.12
2023-12-11T01:42:16.089Z,0.11
2023-12-11T01:42:48.372Z,0.13
2023-12-11T01:43:20.916Z,0.15
2023-12-11T01:43:53.549Z,0.14
2023-12-11T01:44:25.784Z,0.12
2023-12-11T01:44:57.899Z,0.06
2023-12-11T01:45:30.142Z,0.08
2023-12-11T01:46:06.380Z,0.07
2023-12-11T01:46:39.503Z,0.02
2023-12-11T01:47:11.930Z,0.03
2023-12-11T01:47:44.260Z,0.03
2023-12-11T01:48:16.946Z,0.02
2023-12-11T01:48:50.075Z,0.03
2023-12-11T01:49:22.357Z,0.03
2023-12-11T01:49:55.863Z,0.07
2023-12-11T01:50:28.002Z,0.05
2023-12-11T01:51:00.502Z,0.08
2023-12-11T01:51:32.894Z,0.15
2023-12-11T01:52:07.106Z,0.16
2023-12-11T01:52:39.702Z,0.11
2023-12-11T01:53:11.972Z,0.10
2023-12-11T01:53:45.688Z,0.06
2023-12-11T01:54:17.865Z,-0.02
2023-12-11T01:54:49.983Z,0.03
2023-12-11T01:55:22.046Z,0.07
2023-12-11T01:55:54.732Z,0.05
2023-12-11T01:56:27.193Z,-0.01
2023-12-11T01:56:59.422Z,0.03
2023-12-11T01:57:32.152Z,-0.03
2023-12-11T01:58:05.471Z,-0.05
2023-12-11T01:58:38.254Z,-0.01
2023-12-11T01:59:11.195Z,-0.01
2023-12-11T01:59:47.534Z,0.02
2023-12-11T02:00:21.083Z,0.00
2023-12-11T02:00:53.396Z,-0.07
2023-12-11T02:01:27.647Z,-0.03
2023-12-11T02:02:00.485Z,0.00
2023-12-11T02:02:32.542Z,0.00
2023-12-11T02:03:05.283Z,0.06
2023-12-11T02:03:38.640Z,0.03
2023-12-11T02:04:10.888Z,0.02
2023-12-11T02:04:43.219Z,0.00
2023-12-11T02:05:16.751Z,0.02
2023-12-11T02:05:49.735Z,0.03
2023-12-11T02:06:22.896Z,0.06
2023-12-11T02:06:55.029Z,0.03
2023-12-11T02:07:27.296Z,0.09
2023-12-11T02:07:59.698Z,0.12
2023-12-11T02:08:31.892Z,0.14
2023-12-11T02:09:04.022Z,0.11
2023-12-11T02:09:36.178Z,0.06
2023-12-11T02:10:09.229Z,0.03
2023-12-11T02:10:41.412Z,0.10
2023-12-11T02:11:13.628Z,0.13
2023-12-11T02:11:47.283Z,0.13
2023-12-11T02:12:19.588Z,0.10
2023-12-11T02:12:51.818Z,0.10
2023-12-11T02:13:23.932Z,0.15
2023-12-11T02:13:56.135Z,0.16
2023-12-11T02:14:28.346Z,0.19
2023-12-11T02:15:00.342Z,0.12
2023-12-11T02:19:10.104Z,0.05
2023-12-11T02:19:42.348Z,0.09
2023-12-11T02:20:15.878Z,0.09
2023-12-11T02:20:48.150Z,0.08
2023-12-11T02:21:20.262Z,0.09
2023-12-11T02:21:53.445Z,0.09
2023-12-11T02:22:25.924Z,0.11
2023-12-11T02:23:01.477Z,0.13
2023-12-11T02:23:48.189Z,0.09
2023-12-11T02:24:23.815Z,0.05
2023-12-11T02:25:00.991Z,0.06
2023-12-11T02:25:36.566Z,0.07
2023-12-11T02:26:12.192Z,0.09
2023-12-11T02:26:44.723Z,0.09
2023-12-11T02:27:16.947Z,0.13
2023-12-11T02:27:48.998Z,0.10
2023-12-11T02:28:21.114Z,0.08
2023-12-11T02:28:53.132Z,0.10
2023-12-11T02:29:25.183Z,0.09
2023-12-11T02:29:57.242Z,0.11
2023-12-11T02:30:32.625Z,0.11
2023-12-11T02:31:05.625Z,0.12
2023-12-11T02:31:38.682Z,0.14
2023-12-11T02:32:10.819Z,0.17
2023-12-11T02:32:42.872Z,0.13
2023-12-11T02:33:15.158Z,0.09
2023-12-11T02:33:47.236Z,0.09
2023-12-11T02:34:19.348Z,0.08
2023-12-11T02:34:51.463Z,0.07
2023-12-11T02:35:23.488Z,0.07
2023-12-11T02:35:55.823Z,0.11
2023-12-11T02:36:28.055Z,0.11
2023-12-11T02:37:00.202Z,0.13
2023-12-11T02:37:32.532Z,0.15
2023-12-11T02:38:04.712Z,0.08
2023-12-11T02:38:36.832Z,0.07
2023-12-11T02:39:08.942Z,0.02
2023-12-11T02:39:41.427Z,0.01
2023-12-11T02:40:13.707Z,-0.01
2023-12-11T02:40:45.726Z,0.02
2023-12-11T02:41:19.184Z,0.05
2023-12-11T02:41:51.285Z,0.07
2023-12-11T02:42:23.284Z,0.13
2023-12-11T02:42:55.537Z,0.09
2023-12-11T02:43:27.644Z,0.11
2023-12-11T02:44:00.433Z,0.12
2023-12-11T02:44:32.572Z,0.12
2023-12-11T02:45:05.617Z,0.16
2023-12-11T02:45:37.764Z,0.15
2023-12-11T02:46:12.852Z,0.18
2023-12-11T02:46:44.954Z,0.18
2023-12-11T02:47:16.956Z,0.19
2023-12-11T02:47:49.061Z,0.20
2023-12-11T02:48:21.504Z,0.18
2023-12-11T02:48:53.777Z,0.12
2023-12-11T02:49:26.153Z,0.09
2023-12-11T02:49:58.230Z,0.08
2023-12-11T02:50:30.313Z,0.10
2023-12-11T02:51:02.484Z,0.09
2023-12-11T02:51:34.985Z,0.07
2023-12-11T02:52:07.401Z,0.07
2023-12-11T02:52:39.420Z,0.07
2023-12-11T02:53:11.447Z,0.02
2023-12-11T02:53:43.966Z,-0.01
2023-12-11T02:54:16.086Z,0.10
2023-12-11T02:54:48.282Z,0.05
2023-12-11T02:55:20.381Z,0.07
2023-12-11T02:55:52.401Z,0.06
2023-12-11T02:56:25.752Z,0.07
2023-12-11T02:56:57.801Z,0.06
2023-12-11T02:57:30.322Z,0.05
2023-12-11T02:58:04.053Z,0.08
2023-12-11T02:58:36.189Z,0.12
2023-12-11T02:59:08.240Z,0.09
2023-12-11T02:59:40.301Z,0.18
2023-12-11T03:00:12.441Z,0.07
2023-12-11T03:00:44.798Z,0.04
2023-12-11T03:01:17.154Z,0.06
2023-12-11T03:01:49.518Z,0.08
2023-12-11T03:02:21.658Z,0.09
2023-12-11T03:02:54.162Z,0.10
2023-12-11T03:03:26.325Z,0.12
2023-12-11T03:03:58.409Z,0.09
2023-12-11T03:04:30.536Z,0.11
2023-12-11T03:05:02.654Z,0.10
2023-12-11T03:05:34.885Z,0.15
2023-12-11T03:06:07.538Z,0.19
2023-12-11T03:06:39.623Z,0.14
2023-12-11T03:07:11.729Z,0.08
2023-12-11T03:07:43.914Z,0.10
2023-12-11T03:08:15.964Z,0.06
2023-12-11T03:08:48.023Z,0.08
2023-12-11T03:09:20.009Z,0.06
2023-12-11T03:09:53.848Z,0.05
2023-12-11T03:10:26.368Z,0.12
2023-12-11T03:10:59.281Z,0.12
2023-12-11T03:11:32.841Z,0.18
2023-12-11T03:12:05.359Z,0.13
2023-12-11T03:12:37.735Z,0.16
2023-12-11T03:13:10.001Z,0.17
2023-12-11T03:13:42.124Z,0.23
2023-12-11T03:14:14.221Z,0.26
2023-12-11T03:14:46.229Z,0.25
2023-12-11T03:15:18.288Z,0.25
2023-12-11T03:15:50.720Z,0.27
2023-12-11T03:16:22.859Z,0.26
2023-12-11T03:16:55.006Z,0.25
2023-12-11T03:17:27.295Z,0.26
2023-12-11T03:17:59.523Z,0.30
2023-12-11T03:18:31.813Z,0.31
2023-12-11T03:19:04.194Z,0.33
2023-12-11T03:19:36.445Z,0.33
2023-12-11T03:20:11.094Z,0.33
2023-12-11T03:20:43.089Z,0.30
2023-12-11T03:21:15.270Z,0.31
2023-12-11T03:21:47.318Z,0.33
2023-12-11T03:22:20.906Z,0.30
2023-12-11T03:22:54.860Z,0.29
2023-12-11T03:23:26.862Z,0.32
2023-12-11T03:23:58.873Z,0.33
2023-12-11T03:24:31.084Z,0.19
2023-12-11T03:25:03.341Z,0.14
2023-12-11T03:25:35.482Z,0.18
2023-12-11T03:26:07.458Z,0.26
2023-12-11T03:26:41.298Z,0.32
2023-12-11T03:27:13.352Z,0.34
2023-12-11T03:27:45.464Z,0.36
2023-12-11T03:28:17.526Z,0.37
2023-12-11T03:28:49.592Z,0.35
2023-12-11T03:29:21.657Z,0.35
2023-12-11T03:29:53.745Z,0.37
2023-12-11T03:30:25.901Z,0.33
2023-12-11T03:30:58.103Z,0.32
2023-12-11T03:31:30.264Z,0.37
2023-12-11T03:32:02.280Z,0.35
2023-12-11T03:32:34.371Z,0.36
2023-12-11T03:33:06.488Z,0.37
2023-12-11T03:33:38.784Z,0.38
2023-12-11T03:34:10.986Z,0.41
2023-12-11T03:34:43.528Z,0.41
2023-12-11T03:35:15.683Z,0.37
2023-12-11T03:35:47.830Z,0.36
2023-12-11T03:36:19.937Z,0.35
2023-12-11T03:36:52.111Z,0.35
2023-12-11T03:37:24.720Z,0.37
2023-12-11T03:37:56.784Z,0.37
2023-12-11T03:38:28.852Z,0.36
2023-12-11T03:39:00.891Z,0.36
2023-12-11T03:39:32.999Z,0.34
2023-12-11T03:40:06.182Z,0.26
2023-12-11T03:40:40.849Z,0.31
2023-12-11T03:41:12.881Z,0.34
2023-12-11T03:41:46.492Z,0.34
2023-12-11T03:42:18.799Z,0.38
2023-12-11T03:42:51.058Z,0.38
2023-12-11T03:43:23.131Z,0.38
2023-12-11T03:43:55.148Z,0.38
2023-12-11T03:44:27.302Z,0.40
2023-12-11T03:44:59.304Z,0.38
2023-12-11T03:45:31.661Z,0.39
2023-12-11T03:46:04.105Z,0.35
2023-12-11T03:46:36.136Z,0.37
2023-12-11T03:47:08.257Z,0.36
2023-12-11T03:47:40.424Z,0.33
2023-12-11T03:48:12.554Z,0.32
2023-12-11T03:48:44.892Z,0.38
2023-12-11T03:49:17.165Z,0.36
2023-12-11T03:49:49.289Z,0.33
2023-12-11T03:50:21.431Z,0.30
2023-12-11T03:50:53.998Z,0.31
2023-12-11T03:51:26.030Z,0.32
2023-12-11T03:51:58.138Z,0.33
2023-12-11T03:52:30.348Z,0.37
2023-12-11T03:53:02.414Z,0.42
2023-12-11T03:53:34.540Z,0.40
2023-12-11T03:54:06.594Z,0.39
2023-12-11T03:54:38.680Z,0.41
2023-12-11T03:55:11.177Z,0.42
2023-12-11T03:55:43.311Z,0.40
2023-12-11T03:56:15.513Z,0.42
2023-12-11T03:56:49.152Z,0.42
2023-12-11T03:57:21.238Z,0.44
2023-12-11T03:57:53.292Z,0.43
2023-12-11T03:58:26.984Z,0.46
2023-12-11T03:58:59.117Z,0.46
2023-12-11T03:59:31.123Z,0.44
2023-12-11T04:00:03.322Z,0.43
2023-12-11T04:00:35.434Z,0.44
2023-12-11T04:01:07.605Z,0.43
2023-12-11T04:01:39.793Z,0.46
2023-12-11T04:02:12.172Z,0.43
2023-12-11T04:02:44.598Z,0.45
2023-12-11T04:03:16.739Z,0.43
2023-12-11T04:03:48.991Z,0.42
2023-12-11T04:04:21.130Z,0.44
2023-12-11T04:04:53.227Z,0.41
2023-12-11T04:05:25.228Z,0.46
2023-12-11T04:05:57.343Z,0.42
2023-12-11T04:06:29.444Z,0.43
2023-12-11T04:07:01.565Z,0.47
2023-12-11T04:07:33.621Z,0.47
2023-12-11T04:08:06.094Z,0.46
2023-12-11T04:08:41.082Z,0.47
2023-12-11T04:09:13.278Z,0.51
2023-12-11T04:09:45.337Z,0.47
2023-12-11T04:10:17.503Z,0.44
2023-12-11T04:10:49.500Z,0.40
2023-12-11T04:11:21.690Z,0.43
2023-12-11T04:11:55.190Z,0.45
2023-12-11T04:12:27.173Z,0.44
2023-12-11T04:13:01.228Z,0.43
2023-12-11T04:13:33.298Z,0.45
2023-12-11T04:14:05.484Z,0.43
2023-12-11T04:14:37.467Z,0.38
2023-12-11T04:15:10.055Z,0.38
2023-12-11T04:15:42.236Z,0.40
2023-12-11T04:16:14.370Z,0.39
2023-12-11T04:16:46.602Z,0.34
2023-12-11T04:17:18.702Z,0.37
2023-12-11T04:17:50.942Z,0.39
2023-12-11T04:18:23.041Z,0.41
2023-12-11T04:18:58.487Z,0.38
2023-12-11T04:19:32.522Z,0.41
2023-12-11T04:20:05.552Z,0.42
2023-12-11T04:20:37.662Z,0.39
2023-12-11T04:21:09.655Z,0.42
2023-12-11T04:21:42.144Z,0.40
2023-12-11T04:22:14.688Z,0.42
2023-12-11T04:22:46.728Z,0.43
2023-12-11T04:23:19.292Z,0.41
2023-12-11T04:23:51.314Z,0.38
2023-12-11T04:24:23.309Z,0.40
2023-12-11T04:24:55.439Z,0.37
2023-12-11T04:25:27.477Z,0.30
2023-12-11T04:26:00.162Z,0.30
2023-12-11T04:26:32.463Z,0.38
2023-12-11T04:27:06.034Z,0.39
2023-12-11T04:27:38.121Z,0.41
2023-12-11T04:28:10.804Z,0.39
2023-12-11T04:28:42.870Z,0.38
2023-12-11T04:29:14.923Z,0.42
2023-12-11T04:29:46.929Z,0.44
2023-12-11T04:30:19.050Z,0.43
2023-12-11T04:30:51.108Z,0.41
2023-12-11T04:31:23.350Z,0.38
2023-12-11T04:31:55.586Z,0.41
2023-12-11T04:32:27.802Z,0.41
2023-12-11T04:33:00.018Z,0.39
2023-12-11T04:33:32.216Z,0.36
2023-12-11T04:34:04.568Z,0.31
2023-12-11T04:34:36.677Z,0.31
2023-12-11T04:35:09.118Z,0.25
2023-12-11T04:35:41.318Z,0.26
2023-12-11T04:36:13.374Z,0.29
2023-12-11T04:36:45.670Z,0.33
2023-12-11T04:37:17.757Z,0.32
2023-12-11T04:37:49.756Z,0.27
2023-12-11T04:38:21.756Z,0.28
2023-12-11T04:38:53.772Z,0.29
2023-12-11T04:39:25.911Z,0.26
2023-12-11T04:39:57.963Z,0.24
2023-12-11T04:40:30.144Z,0.25
2023-12-11T04:41:02.270Z,0.26
2023-12-11T04:41:34.419Z,0.22
2023-12-11T04:42:07.873Z,0.23
2023-12-11T04:42:40.141Z,0.22
2023-12-11T04:43:12.389Z,0.25
2023-12-11T04:43:44.526Z,0.26
2023-12-11T04:44:16.646Z,0.29
2023-12-11T04:44:48.868Z,0.30
2023-12-11T04:45:21.023Z,0.31
2023-12-11T04:45:53.325Z,0.30
2023-12-11T04:46:25.400Z,0.32
2023-12-11T04:46:57.501Z,0.25
2023-12-11T04:47:30.152Z,0.23
2023-12-11T04:48:02.578Z,0.29
2023-12-11T04:48:34.874Z,0.31
2023-12-11T04:49:07.362Z,0.30
2023-12-11T04:49:40.186Z,0.28
2023-12-11T04:50:12.318Z,0.29
2023-12-11T04:50:44.364Z,0.34
2023-12-11T04:51:16.524Z,0.34
2023-12-11T04:51:48.634Z,0.27
2023-12-11T04:52:20.661Z,0.25
2023-12-11T04:52:52.717Z,0.25
2023-12-11T04:53:24.735Z,0.27
2023-12-11T04:53:56.895Z,0.28
2023-12-11T04:54:29.108Z,0.30
2023-12-11T04:55:01.215Z,0.30
2023-12-11T04:55:33.366Z,0.29
2023-12-11T04:56:09.445Z,0.28
2023-12-11T04:56:41.550Z,0.30
2023-12-11T04:57:15.360Z,0.31
2023-12-11T04:57:47.677Z,0.31
2023-12-11T04:58:19.790Z,0.27
2023-12-11T04:58:51.921Z,0.26
2023-12-11T04:59:26.940Z,0.19
2023-12-11T04:59:58.940Z,0.17
2023-12-11T05:00:31.171Z,0.13
2023-12-11T05:01:03.600Z,0.18
2023-12-11T05:01:35.898Z,0.17
2023-12-11T05:02:08.258Z,0.18
2023-12-11T05:02:40.288Z,0.18
2023-12-11T05:03:12.563Z,0.13
2023-12-11T05:03:44.806Z,0.13
2023-12-11T05:04:16.914Z,0.16
2023-12-11T05:04:49.073Z,0.17
2023-12-11T05:05:21.235Z,0.17
2023-12-11T05:05:53.372Z,0.11
2023-12-11T05:06:25.442Z,0.12
2023-12-11T05:06:57.551Z,0.15
2023-12-11T05:07:29.832Z,0.14
2023-12-11T05:08:01.977Z,0.18
2023-12-11T05:08:34.225Z,0.19
2023-12-11T05:09:06.436Z,0.23
2023-12-11T05:09:38.632Z,0.23
2023-12-11T05:10:11.124Z,0.25
2023-12-11T05:10:43.326Z,0.20
2023-12-11T05:11:15.390Z,0.14
2023-12-11T05:11:47.404Z,0.13
2023-12-11T05:12:20.822Z,0.19
2023-12-11T05:12:52.936Z,0.20
2023-12-11T05:13:24.936Z,0.24
2023-12-11T05:13:57.015Z,0.26
2023-12-11T05:14:29.128Z,0.27
2023-12-11T05:15:01.219Z,0.31
2023-12-11T05:15:33.520Z,0.28
2023-12-11T05:16:06.311Z,0.23
2023-12-11T05:16:38.600Z,0.19
2023-12-11T05:17:10.831Z,0.17
2023-12-11T05:17:42.964Z,0.20
2023-12-11T05:18:15.135Z,0.14
2023-12-11T05:18:47.371Z,0.17
2023-12-11T05:19:19.651Z,0.18
2023-12-11T05:19:51.745Z,0.25
2023-12-11T05:20:23.811Z,0.24
2023-12-11T05:20:56.018Z,0.18
2023-12-11T05:21:28.071Z,0.20
2023-12-11T05:22:03.636Z,0.17
2023-12-11T05:22:35.724Z,0.21
2023-12-11T05:23:07.794Z,0.20
2023-12-11T05:23:39.889Z,0.21
2023-12-11T05:24:12.749Z,0.17
2023-12-11T05:24:44.883Z,0.25
2023-12-11T05:25:16.998Z,0.26
2023-12-11T05:25:49.060Z,0.24
2023-12-11T05:26:21.412Z,0.19
2023-12-11T05:26:55.366Z,0.21
2023-12-11T05:27:29.058Z,0.20
2023-12-11T05:28:01.385Z,0.28
2023-12-11T05:28:33.535Z,0.28
2023-12-11T05:29:06.225Z,0.22
2023-12-11T05:29:38.328Z,0.25
2023-12-11T05:30:10.911Z,0.25
2023-12-11T05:30:42.965Z,0.28
2023-12-11T05:31:15.414Z,0.29
2023-12-11T05:31:47.724Z,0.33
2023-12-11T05:32:19.818Z,0.33
2023-12-11T05:32:51.956Z,0.30
2023-12-11T05:33:24.371Z,0.30
2023-12-11T05:33:56.623Z,0.31
2023-12-11T05:34:28.736Z,0.29
2023-12-11T05:35:00.991Z,0.33
2023-12-11T05:35:33.040Z,0.32
2023-12-11T05:36:06.078Z,0.25
2023-12-11T05:36:38.170Z,0.27
2023-12-11T05:37:10.513Z,0.25
2023-12-11T05:37:42.682Z,0.24
2023-12-11T05:38:14.787Z,0.26
2023-12-11T05:38:49.809Z,0.32
2023-12-11T05:39:21.838Z,0.36
2023-12-11T05:40:01.228Z,0.38
2023-12-11T05:40:45.973Z,0.39
2023-12-11T05:41:18.448Z,0.34
2023-12-11T05:41:50.479Z,0.31
2023-12-11T05:42:22.565Z,0.30
2023-12-11T05:42:56.192Z,0.30
2023-12-11T05:43:28.219Z,0.34
2023-12-11T05:44:00.269Z,0.35
2023-12-11T05:44:32.272Z,0.37
2023-12-11T05:45:05.155Z,0.31
2023-12-11T05:45:37.249Z,0.34
2023-12-11T05:46:09.454Z,0.35
2023-12-11T05:46:41.715Z,0.31
2023-12-11T05:47:13.937Z,0.34
2023-12-11T05:47:46.199Z,0.39
2023-12-11T05:48:18.301Z,0.41
2023-12-11T05:48:50.464Z,0.39
2023-12-11T05:49:22.647Z,0.38
2023-12-11T05:49:54.865Z,0.38
2023-12-11T05:50:27.032Z,0.34
2023-12-11T05:50:59.247Z,0.30
2023-12-11T05:51:31.464Z,0.33
2023-12-11T05:52:03.952Z,0.31
2023-12-11T05:52:36.044Z,0.27
2023-12-11T05:53:08.382Z,0.24
2023-12-11T05:53:40.577Z,0.26
2023-12-11T05:54:12.629Z,0.20
2023-12-11T05:54:44.708Z,0.14
2023-12-11T05:55:16.928Z,0.06
2023-12-11T05:55:49.090Z,0.02
2023-12-11T05:56:21.097Z,-0.05
2023-12-11T05:56:53.164Z,0.03
2023-12-11T05:57:25.785Z,-0.01
2023-12-11T05:57:59.242Z,-0.03
2023-12-11T05:58:31.251Z,-0.05
2023-12-11T05:59:03.463Z,-0.08
2023-12-11T05:59:35.606Z,0.00
2023-12-11T06:00:08.939Z,0.07
2023-12-11T06:00:41.385Z,0.15
2023-12-11T06:01:13.614Z,0.18
2023-12-11T06:01:45.934Z,0.19
2023-12-11T06:02:18.066Z,0.23
2023-12-11T06:02:50.153Z,0.27
2023-12-11T06:03:22.164Z,0.29
2023-12-11T06:03:54.216Z,0.33
2023-12-11T06:04:26.252Z,0.30
2023-12-11T06:04:58.281Z,0.33
2023-12-11T06:05:30.267Z,0.37
2023-12-11T06:06:02.370Z,0.38
2023-12-11T06:06:34.450Z,0.37
2023-12-11T06:07:06.542Z,0.39
2023-12-11T06:07:38.609Z,0.39
2023-12-11T06:08:10.680Z,0.37
2023-12-11T06:08:42.749Z,0.39
2023-12-11T06:09:15.021Z,0.41
2023-12-11T06:09:47.120Z,0.40
2023-12-11T06:10:19.222Z,0.39
2023-12-11T06:10:51.388Z,0.36
2023-12-11T06:11:23.382Z,0.39
2023-12-11T06:11:55.400Z,0.45
2023-12-11T06:12:27.520Z,0.48
2023-12-11T06:13:00.995Z,0.54
2023-12-11T06:13:33.070Z,0.56
2023-12-11T06:14:05.137Z,0.58
2023-12-11T06:14:40.038Z,0.57
2023-12-11T06:15:12.931Z,0.56
2023-12-11T06:15:45.204Z,0.59
2023-12-11T06:16:17.381Z,0.54
2023-12-11T06:16:49.591Z,0.59
2023-12-11T06:17:21.682Z,0.58
2023-12-11T06:17:53.823Z,0.59
2023-12-11T06:18:25.986Z,0.59
2023-12-11T06:18:58.106Z,0.58
2023-12-11T06:19:30.324Z,0.55
2023-12-11T06:20:02.507Z,0.58
2023-12-11T06:20:34.687Z,0.63
2023-12-11T06:21:07.158Z,0.64
2023-12-11T06:21:39.251Z,0.66
2023-12-11T06:22:11.316Z,0.68
2023-12-11T06:22:43.581Z,0.72
2023-12-11T06:23:15.628Z,0.72
2023-12-11T06:23:47.810Z,0.70
2023-12-11T06:24:19.818Z,0.65
2023-12-11T06:24:51.929Z,0.65
2023-12-11T06:25:23.999Z,0.60
2023-12-11T06:25:56.002Z,0.60
2023-12-11T06:26:31.374Z,0.59
2023-12-11T06:27:03.627Z,0.59
2023-12-11T06:27:35.670Z,0.62
2023-12-11T06:28:09.106Z,0.61
2023-12-11T06:28:41.143Z,0.63
2023-12-11T06:29:13.170Z,0.67
2023-12-11T06:29:45.296Z,0.70
2023-12-11T06:30:17.410Z,0.71
2023-12-11T06:30:49.524Z,0.73
2023-12-11T06:31:21.689Z,0.72
2023-12-11T06:31:53.691Z,0.73
2023-12-11T06:32:25.784Z,0.71
2023-12-11T06:32:57.851Z,0.74
2023-12-11T06:33:29.867Z,0.78
2023-12-11T06:34:02.037Z,0.76
2023-12-11T06:34:34.978Z,0.74
2023-12-11T06:35:07.940Z,0.70
2023-12-11T06:35:40.097Z,0.69
2023-12-11T06:36:12.298Z,0.71
2023-12-11T06:36:44.447Z,0.71
2023-12-11T06:37:16.778Z,0.66
2023-12-11T06:37:49.184Z,0.59
2023-12-11T06:38:21.186Z,0.60
2023-12-11T06:38:53.275Z,0.66
2023-12-11T06:39:25.250Z,0.66
2023-12-11T06:39:57.327Z,0.66
2023-12-11T06:40:29.412Z,0.68
2023-12-11T06:41:01.456Z,0.61
2023-12-11T06:41:36.266Z,0.65
2023-12-11T06:42:08.580Z,0.66
2023-12-11T06:42:40.717Z,0.64
2023-12-11T06:43:14.262Z,0.63
2023-12-11T06:43:49.190Z,0.63
2023-12-11T06:44:21.290Z,0.64
2023-12-11T06:44:53.741Z,0.66
2023-12-11T06:45:25.921Z,0.67
2023-12-11T06:45:58.082Z,0.69
2023-12-11T06:46:30.891Z,0.71
2023-12-11T06:47:03.385Z,0.73
2023-12-11T06:47:35.757Z,0.72
2023-12-11T06:48:08.122Z,0.74
2023-12-11T06:48:40.517Z,0.75
2023-12-11T06:49:12.857Z,0.78
2023-12-11T06:49:45.222Z,0.80
2023-12-11T06:50:17.413Z,0.82
2023-12-11T06:50:49.513Z,0.82
2023-12-11T06:51:21.680Z,0.75
2023-12-11T06:51:53.720Z,0.74
2023-12-11T06:52:25.934Z,0.75
2023-12-11T06:52:58.028Z,0.75
2023-12-11T06:53:30.101Z,0.75
2023-12-11T06:54:02.280Z,0.72
2023-12-11T06:54:34.575Z,0.64
2023-12-11T06:55:07.729Z,0.64
2023-12-11T06:55:39.795Z,0.64
2023-12-11T06:56:17.976Z,0.71
2023-12-11T06:56:50.258Z,0.73
2023-12-11T06:57:22.444Z,0.74
2023-12-11T06:57:55.858Z,0.77
2023-12-11T06:58:29.324Z,0.76
2023-12-11T06:59:01.368Z,0.76
2023-12-11T06:59:33.424Z,0.72
2023-12-11T07:00:06.994Z,0.72
2023-12-11T07:00:39.246Z,0.71
2023-12-11T07:01:11.589Z,0.72
2023-12-11T07:01:44.006Z,0.67
2023-12-11T07:02:16.319Z,0.64
2023-12-11T07:02:48.450Z,0.67
2023-12-11T07:03:20.661Z,0.65
2023-12-11T07:03:53.009Z,0.67
2023-12-11T07:04:25.415Z,0.64
2023-12-11T07:04:57.638Z,0.68
2023-12-11T07:05:29.966Z,0.69
2023-12-11T07:06:02.209Z,0.68
2023-12-11T07:06:34.778Z,0.67
2023-12-11T07:07:07.062Z,0.68
2023-12-11T07:07:39.261Z,0.70
2023-12-11T07:08:11.785Z,0.69
2023-12-11T07:08:43.848Z,0.65
2023-12-11T07:09:15.945Z,0.62
2023-12-11T07:09:48.087Z,0.68
2023-12-11T07:10:20.230Z,0.62
2023-12-11T07:10:52.308Z,0.60
2023-12-11T07:11:24.609Z,0.62
2023-12-11T07:11:56.998Z,0.53
2023-12-11T07:12:29.006Z,0.58
2023-12-11T07:13:01.166Z,0.65
2023-12-11T07:13:34.719Z,0.68
2023-12-11T07:14:07.517Z,0.72
2023-12-11T07:14:39.606Z,0.73
2023-12-11T07:15:11.706Z,0.70